Argyle, Texas
Current Conditions -  °F | °C
As of 2:53 AM on Thursday 23 Oct 2014 (Local Time) from KDTO Reporting Station
Overcast Overcast  
Wind Chill: 65°   Ceiling: 8500
Heat Index: 65°   Visibility: 10mi
Dew Point: 57°   Wind: 5mph
Humidity: 75%   Direction: 120°ESE
Pressure: 30.11"   Gusts: NA
Location:  33.12°N, 97.18°W
Report Text: KDTO 230753Z AUTO 12004KT 10SM OVC085 18/14 A3011 RMK AO2 RAE04 SLP189 P0000 T01830139
Loading
Personal Weather Stations






























Interactive Weather Map
Tropical Storm Tracking
New forecast layout! Learn more

10-Day Weather Forecast

Advertisements
Track Severe Weather on mobile